createdAt,value
2018-11-20T00:00:21.359Z,79.79
2018-11-20T00:02:55.778Z,80.05
2018-11-20T00:05:48.833Z,81.03
2018-11-20T00:08:23.189Z,80.86
2018-11-20T00:11:05.193Z,80.30
2018-11-20T00:14:13.331Z,81.01
2018-11-20T00:17:50.720Z,80.69
2018-11-20T00:20:30.151Z,81.01
2018-11-20T00:23:04.287Z,81.61
2018-11-20T00:25:52.550Z,82.00
2018-11-20T00:28:45.626Z,81.55
2018-11-20T00:33:24.874Z,81.41
2018-11-20T00:35:59.365Z,81.60
2018-11-20T00:38:33.495Z,80.77
2018-11-20T00:41:07.716Z,81.42
2018-11-20T00:45:46.066Z,80.96
2018-11-20T00:50:21.450Z,80.80
2018-11-20T00:53:27.547Z,80.16
2018-11-20T00:57:15.579Z,79.97
2018-11-20T01:00:57.770Z,79.74
2018-11-20T01:03:31.976Z,79.99
2018-11-20T01:06:36.872Z,79.89
2018-11-20T01:09:15.222Z,79.67
2018-11-20T01:11:53.315Z,80.33
2018-11-20T01:14:29.433Z,79.61
2018-11-20T01:17:03.627Z,79.90
2018-11-20T01:19:45.763Z,79.69
2018-11-20T01:22:20.041Z,79.81
2018-11-20T01:25:09.949Z,79.91
2018-11-20T01:29:46.189Z,80.36
2018-11-20T01:32:24.468Z,79.85
2018-11-20T01:35:04.811Z,79.62
2018-11-20T01:37:38.839Z,79.79
2018-11-20T01:42:16.637Z,79.23
2018-11-20T01:44:50.758Z,79.36
2018-11-20T01:49:25.821Z,78.89
2018-11-20T01:51:59.537Z,79.92
2018-11-20T01:54:43.432Z,79.57
2018-11-20T01:57:49.732Z,79.33
2018-11-20T02:01:25.804Z,79.71
2018-11-20T02:04:10.798Z,79.49
2018-11-20T02:06:45.075Z,79.47
2018-11-20T02:09:19.139Z,79.57
2018-11-20T02:12:11.172Z,79.93
2018-11-20T02:14:45.102Z,80.24
2018-11-20T02:19:25.259Z,79.95
2018-11-20T02:22:15.181Z,79.49
2018-11-20T02:24:49.193Z,80.19
2018-11-20T02:27:24.234Z,79.60
2018-11-20T02:31:01.139Z,79.46
2018-11-20T02:33:37.113Z,79.24
2018-11-20T02:36:13.579Z,79.20
2018-11-20T02:40:48.720Z,79.03
2018-11-20T02:43:24.717Z,80.31
2018-11-20T02:48:06.047Z,79.77
2018-11-20T02:50:42.093Z,80.29
2018-11-20T02:53:16.183Z,80.23
2018-11-20T02:55:50.362Z,79.93
2018-11-20T02:58:28.191Z,80.15
2018-11-20T03:01:06.227Z,79.69
2018-11-20T03:03:40.274Z,79.77
2018-11-20T03:06:13.321Z,79.48
2018-11-20T03:08:46.461Z,80.07
2018-11-20T03:11:35.510Z,79.57
2018-11-20T03:15:06.790Z,79.87
2018-11-20T03:19:42.923Z,79.80
2018-11-20T03:22:16.843Z,79.78
2018-11-20T03:24:55.815Z,79.84
2018-11-20T03:27:29.959Z,79.66
2018-11-20T03:31:08.563Z,78.29
2018-11-20T03:35:45.923Z,78.42
2018-11-20T03:38:34.961Z,78.04
2018-11-20T03:42:06.150Z,78.66
2018-11-20T03:45:44.309Z,78.50
2018-11-20T03:50:23.223Z,77.99
2018-11-20T03:53:15.361Z,77.99
2018-11-20T03:55:52.352Z,78.04
2018-11-20T03:58:28.297Z,78.50
2018-11-20T04:01:08.338Z,78.99
2018-11-20T04:03:43.351Z,78.84
2018-11-20T04:06:21.345Z,78.20
2018-11-20T04:10:59.182Z,78.38
2018-11-20T04:13:35.121Z,78.28
2018-11-20T04:16:09.014Z,78.40
2018-11-20T04:18:50.122Z,78.67
2018-11-20T04:21:24.034Z,78.45
2018-11-20T04:23:58.122Z,78.56
2018-11-20T04:27:35.083Z,78.63
2018-11-20T04:30:35.801Z,78.09
2018-11-20T04:33:20.596Z,78.33
2018-11-20T04:35:53.661Z,78.05
2018-11-20T04:38:29.699Z,78.58
2018-11-20T04:41:03.795Z,78.60
2018-11-20T04:43:46.989Z,78.90
2018-11-20T04:46:21.344Z,79.29
2018-11-20T04:49:57.663Z,79.25
2018-11-20T04:52:41.566Z,79.38
2018-11-20T04:57:19.745Z,79.06
2018-11-20T04:59:53.947Z,78.60
2018-11-20T05:04:29.226Z,79.28
2018-11-20T05:07:22.173Z,79.17
2018-11-20T05:11:58.362Z,78.75
2018-11-20T05:14:46.738Z,78.93
2018-11-20T05:17:20.922Z,79.10
2018-11-20T05:20:05.843Z,78.43
2018-11-20T05:22:40.029Z,78.25
2018-11-20T05:25:17.259Z,77.89
2018-11-20T05:29:57.815Z,78.27
2018-11-20T05:33:02.897Z,78.03
2018-11-20T05:35:37.298Z,77.72
2018-11-20T05:38:19.193Z,77.92
2018-11-20T05:40:52.581Z,77.95
2018-11-20T05:43:25.656Z,77.88
2018-11-20T05:45:59.733Z,78.51
2018-11-20T05:50:39.751Z,78.75
2018-11-20T05:53:15.609Z,78.15
2018-11-20T05:55:54.614Z,78.10
2018-11-20T05:58:32.855Z,78.51
2018-11-20T06:01:14.669Z,78.42
2018-11-20T06:03:48.679Z,78.72
2018-11-20T06:06:26.578Z,79.04
2018-11-20T06:09:04.517Z,79.29
2018-11-20T06:13:42.789Z,78.95
2018-11-20T06:17:21.018Z,79.64
2018-11-20T06:21:56.222Z,80.28
2018-11-20T06:25:01.382Z,81.13
2018-11-20T06:27:35.430Z,81.86
2018-11-20T06:30:29.453Z,82.07
2018-11-20T06:35:04.723Z,80.65
2018-11-20T06:37:52.831Z,82.02
2018-11-20T06:40:26.874Z,81.47
2018-11-20T06:43:00.978Z,81.84
2018-11-20T06:45:48.935Z,81.27
2018-11-20T06:48:31.537Z,81.13
2018-11-20T06:51:05.534Z,81.15
2018-11-20T06:53:43.534Z,80.78
2018-11-20T06:56:17.684Z,80.93
2018-11-20T06:59:09.888Z,80.95
2018-11-20T07:01:44.693Z,80.92
2018-11-20T07:06:20.620Z,80.39
2018-11-20T07:09:03.652Z,80.88
2018-11-20T07:13:43.713Z,80.59
2018-11-20T07:16:35.041Z,79.84
2018-11-20T07:19:14.057Z,80.04
2018-11-20T07:21:48.077Z,80.04
2018-11-20T07:24:29.102Z,80.02
2018-11-20T07:29:04.255Z,79.31
2018-11-20T07:31:38.479Z,79.85
2018-11-20T07:34:15.513Z,79.99
2018-11-20T07:37:06.890Z,79.61
2018-11-20T07:39:47.898Z,79.63
2018-11-20T07:42:37.090Z,79.61
2018-11-20T07:45:15.883Z,79.87
2018-11-20T07:47:54.078Z,79.49
2018-11-20T07:52:31.098Z,79.57
2018-11-20T07:55:04.251Z,79.57
2018-11-20T07:59:42.279Z,79.43
2018-11-20T08:02:16.340Z,80.36
2018-11-20T08:04:52.346Z,80.18
2018-11-20T08:07:31.621Z,80.43
2018-11-20T08:10:15.704Z,80.77
2018-11-20T08:12:53.717Z,80.93
2018-11-20T08:15:26.952Z,80.77
2018-11-20T08:18:05.053Z,80.38
2018-11-20T08:20:41.980Z,80.44
2018-11-20T08:23:15.989Z,80.66
2018-11-20T08:27:56.257Z,80.47
2018-11-20T08:30:30.801Z,80.24
2018-11-20T08:33:04.934Z,80.01
2018-11-20T08:35:43.982Z,80.63
2018-11-20T08:38:17.135Z,80.32
2018-11-20T08:40:51.176Z,80.32
2018-11-20T08:45:27.146Z,80.26
2018-11-20T08:48:03.248Z,80.79
2018-11-20T08:50:41.716Z,80.43
2018-11-20T08:55:16.873Z,80.54
2018-11-20T08:58:53.921Z,80.00
2018-11-20T09:01:58.016Z,80.13
2018-11-20T09:04:32.083Z,80.38
2018-11-20T09:07:14.065Z,79.92
2018-11-20T09:11:55.100Z,80.29
2018-11-20T09:15:03.286Z,80.34
2018-11-20T09:17:36.499Z,80.32
2018-11-20T09:22:13.881Z,79.97
2018-11-20T09:26:56.192Z,80.78
2018-11-20T09:29:30.394Z,80.70
2018-11-20T09:32:04.422Z,80.55
2018-11-20T09:34:50.986Z,79.70
2018-11-20T09:37:24.174Z,80.87
2018-11-20T09:41:00.986Z,80.53
2018-11-20T09:43:43.447Z,80.88
2018-11-20T09:46:23.453Z,80.17
2018-11-20T09:51:02.563Z,80.50
2018-11-20T09:53:41.627Z,80.79
2018-11-20T09:58:18.585Z,81.03
2018-11-20T10:00:52.655Z,80.62
2018-11-20T10:03:30.740Z,79.73
2018-11-20T10:06:11.393Z,80.18
2018-11-20T10:09:25.813Z,80.38
2018-11-20T10:13:04.663Z,79.49
2018-11-20T10:17:44.550Z,79.73
2018-11-20T10:22:20.462Z,79.46
2018-11-20T10:24:57.288Z,79.41
2018-11-20T10:29:33.112Z,78.61
2018-11-20T10:33:06.005Z,79.47
2018-11-20T10:37:42.021Z,79.11
2018-11-20T10:40:25.872Z,78.71
2018-11-20T10:43:13.894Z,78.44
2018-11-20T10:45:47.956Z,78.54
2018-11-20T10:48:55.833Z,77.45
2018-11-20T10:51:46.855Z,78.62
2018-11-20T10:54:21.173Z,78.33
2018-11-20T10:56:55.299Z,78.34
2018-11-20T11:00:28.298Z,78.74
2018-11-20T11:03:02.311Z,78.01
2018-11-20T11:05:37.504Z,77.76
2018-11-20T11:08:15.517Z,77.61
2018-11-20T11:10:49.580Z,77.68
2018-11-20T11:13:54.539Z,77.49
2018-11-20T11:18:34.772Z,77.58
2018-11-20T11:21:13.523Z,77.88
2018-11-20T11:24:50.594Z,78.09
2018-11-20T11:29:26.664Z,77.20
2018-11-20T11:32:36.215Z,76.12
2018-11-20T11:35:43.152Z,76.26
2018-11-20T11:39:25.222Z,76.89
2018-11-20T11:42:30.242Z,76.69
2018-11-20T11:45:14.695Z,77.39
2018-11-20T11:49:51.036Z,76.74
2018-11-20T11:54:29.101Z,77.16
2018-11-20T11:57:06.424Z,76.83
2018-11-20T12:00:14.641Z,76.36
